• Join FlightAware (Why Join?)
  • Login
  • US Flag 
09:44PM EDT


 

Airport Tracker/Info


-or-


 

Live Flight TrackerFlight Track Log ✈ N103AL ✈ 30-Apr-2013 ✈ KCHS - TKPK / SKB

Flight Track Log - Related Links

Times and Time Zones

All times are in EDT time to prevent confusion due to time zone crossing. See the N103AL flight status page for this flight to view local times or setup timezone preferences in your user account.

Time Position Orientation Groundspeed Altitude Reporting Facility
EDT Latitude Longitude Course Direction KTS MPH feet Rate Location/Type
03:34PM 33.0036 -79.9006 107° East 260 299 6,600  Level Jacksonville Center
03:35PM 32.9811 -79.8269 110° East 282 325 9,500 2,280 Climbing Jacksonville Center
03:36PM 32.9497 -79.7364 112° Southeast 277 319 11,200 1,980 Climbing Jacksonville Center
03:37PM 32.9139 -79.6386 114° Southeast 296 341 13,500 2,280 Climbing Jacksonville Center
03:38PM 32.6542 -79.2071 107° East  Level FlightAware Approximate
03:38PM 32.8778 -79.5386 113° Southeast 316 364 15,800  Level Jacksonville Center
03:39PM 32.6178 -79.0678 107° East  Level FlightAware Approximate
03:39PM 32.8417 -79.4361 113° Southeast 326 375 17,800  Level Jacksonville Center
03:40PM 32.8033 -79.3314 114° Southeast 347 399 19,700 1,920 Climbing Jacksonville Center
03:41PM 32.7647 -79.2242 113° Southeast 347 399 21,700 1,620 Climbing Jacksonville Center
03:42PM 32.7258 -79.1147 113° Southeast 347 399 23,000 600 Climbing Jacksonville Center
03:43PM 32.6828 -78.9981 114° Southeast 366 421 23,000 420 Level Jacksonville Center
03:44PM 32.6353 -78.8767 115° Southeast 384 442 23,900 1,200 Climbing Jacksonville Center
03:45PM 32.5878 -78.7628 116° Southeast 389 448 25,400 1,500 Climbing Jacksonville Center
03:46PM 32.5378 -78.6444 117° Southeast 394 453 26,900 1,200 Climbing Jacksonville Center
03:47PM 32.4789 -78.5094 117° Southeast 399 459 27,900 540 Climbing Jacksonville Center
03:48PM 32.3922 -78.4175 138° Southeast 406 467 28,000  Climbing Jacksonville Center
03:49PM 32.2933 -78.3931 168° South 388 447 27,900  Descending Jacksonville Center
03:50PM 32.1819 -78.3714 171° South 393 452 28,000  Climbing Jacksonville Center
03:51PM 32.0664 -78.3550 173° South 403 464 28,000  Level Jacksonville Center
03:52PM 31.9589 -78.3261 167° South 408 470 28,000  Level Jacksonville Center
03:53PM 31.8436 -78.3097 173° South 413 475 28,000  Level Jacksonville Center
03:54PM 31.7319 -78.2861 170° South 408 470 28,000  Level Jacksonville Center
03:55PM 31.6058 -78.2581 169° South 413 475 28,000  Level Jacksonville Center
03:56PM 31.4903 -78.2372 171° South 416 479 28,000  Level Jacksonville Center
03:57PM 31.3789 -78.2183 172° South 414 476 28,000  Level Jacksonville Center
03:58PM 31.2678 -78.2044 174° South 409 471 28,000  Level Jacksonville Center
03:59PM 31.1558 -78.1711 166° South 408 470 28,000 -60 Level Jacksonville Center
04:00PM 31.0425 -78.1550 173° South 416 479 27,900  Descending Jacksonville Center
04:01PM 30.9397 -78.1408 173° South 418 481 28,000  Climbing Jacksonville Center
04:02PM 30.8283 -78.1222 172° South 413 475 28,000  Level Jacksonville Center
04:03PM 30.7064 -78.0922 168° South 408 470 28,000  Level Jacksonville Center
04:04PM 30.5950 -78.0736 172° South 408 470 28,000  Level Jacksonville Center
04:06PM 30.3611 -78.0336 172° South 389 448 28,000  Level Miami Center
04:07PM 30.2217 -78.0106 172° South 411 473 28,000  Level Miami Center
04:08PM 30.1133 -77.9950 173° South 411 473 28,000  Level Miami Center
04:09PM 29.9947 -77.9675 169° South 416 479 28,000  Level Miami Center
04:10PM 29.8800 -77.9469 171° South 417 480 28,000  Level Miami Center
04:11PM 29.7697 -77.9292 172° South 412 474 28,000  Level Miami Center
04:12PM 29.6594 -77.9114 172° South 413 475 28,000  Level Miami Center
04:13PM 29.5406 -77.8864 170° South 413 475 28,000  Level Miami Center
04:14PM 29.4261 -77.8686 172° South 421 484 28,000  Level Miami Center
04:15PM 29.3114 -77.8486 171° South 421 484 28,000  Level Miami Center
04:16PM 29.1969 -77.8261 170° South 421 484 28,000  Level Miami Center
04:17PM 29.0781 -77.8061 172° South 427 491 28,000  Level Miami Center
04:18PM 28.9489 -77.7814 170° South 442 509 28,000  Level Miami Center
04:19PM 28.8342 -77.7614 171° South 442 509 28,000  Level Miami Center
04:20PM 28.7092 -77.7367 170° South 450 518 28,000  Level Miami Center
04:21PM 28.5861 -77.7169 172° South 450 518 28,000  Level Miami Center
04:22PM 28.4650 -77.6947 171° South 450 518 28,000  Level Miami Center
04:23PM 28.3464 -77.6750 172° South 443 510 28,000  Level Miami Center
04:24PM 28.2192 -77.6503 170° South 450 518 28,000  Level Miami Center
04:25PM 28.1067 -77.5883 154° Southeast 433 498 28,000  Level Miami Center
04:26PM 28.0172 -77.4797 133° Southeast 447 514 28,000  Level Miami Center
04:27PM 27.9322 -77.3592 129° Southeast 475 547 28,000  Level Miami Center
04:28PM 27.8511 -77.2461 129° Southeast 475 547 28,000  Level Miami Center
04:29PM 27.7575 -77.1050 127° Southeast 483 556 28,000  Level Miami Center
04:30PM 27.6742 -76.9922 130° Southeast 483 556 28,000  Level Miami Center
04:31PM 27.5928 -76.8797 129° Southeast 481 554 28,000  Level Miami Center
04:32PM 27.5069 -76.7508 127° Southeast 494 568 28,000  Level Miami Center
04:33PM 27.4192 -76.6244 128° Southeast 494 568 28,000  Level Miami Center
04:34PM 27.3353 -76.5031 128° Southeast 494 568 28,000  Level Miami Center
04:35PM 27.2514 -76.3889 130° Southeast 494 568 28,000  Level Miami Center
04:36PM 27.1694 -76.2772 130° Southeast 489 563 28,000  Level Miami Center
04:37PM 27.0856 -76.1608 129° Southeast 484 557 28,000  Level Miami Center
04:38PM 26.9992 -76.0403 129° Southeast 489 563 28,000  Level Miami Center
04:39PM 26.9128 -75.9172 128° Southeast 489 563 28,000  Level Miami Center
04:40PM 26.8328 -75.8086 130° Southeast 478 550 28,000  Level Miami Center
04:41PM 26.7419 -75.6836 129° Southeast 490 564 28,000  Level Miami Center
04:42PM 26.6489 -75.5683 132° Southeast 488 562 28,000  Level Miami Center
04:43PM 26.5603 -75.4603 133° Southeast 488 562 28,000  Level Miami Center
04:44PM 26.4858 -75.3450 126° Southeast 483 556 28,000  Level Miami Center
04:45PM 26.4053 -75.2253 127° Southeast 481 554 28,000  Level Miami Center
04:46PM 26.3267 -75.1058 126° Southeast 480 552 28,000  Level Miami Center
04:47PM 26.2436 -74.9892 128° Southeast 489 563 28,000  Level Miami Center
04:48PM 26.1628 -74.8792 129° Southeast 473 544 28,000  Level Miami Center
04:49PM 26.0797 -74.7650 129° Southeast 466 536 28,000  Level Miami Center
04:50PM 26.0028 -74.6553 128° Southeast 466 536 28,000  Level Miami Center
04:51PM 25.9092 -74.5392 132° Southeast 478 550 28,000  Level Miami Center
04:52PM 25.8258 -74.4256 129° Southeast 478 550 28,000  Level Miami Center
04:53PM 25.7403 -74.3142 130° Southeast 478 550 28,000  Level Miami Center
04:54PM 25.6675 -74.2097 128° Southeast 478 550 28,000  Level Miami Center
04:55PM 25.5839 -74.1008 130° Southeast 473 544 28,000  Level Miami Center
04:56PM 25.5003 -73.9878 129° Southeast 479 551 28,000  Level Miami Center
04:57PM 25.4144 -73.8747 130° Southeast 473 544 28,000  Level Miami Center
04:58PM 25.3306 -73.7619 129° Southeast 474 545 28,000 -60 Level Miami Center
04:59PM 25.2447 -73.6492 130° Southeast 474 545 27,900 -300 Descending Miami Center
05:00PM 25.1564 -73.5344 130° Southeast 479 551 27,500 -420 Descending Miami Center
05:01PM 25.0703 -73.4222 130° Southeast 479 551 27,100 -300 Descending Miami Center
05:02PM 24.9839 -73.3056 129° Southeast 484 557 27,000 -60 Descending Miami Center
05:03PM 24.8956 -73.1914 130° Southeast 484 557 27,000  Level Miami Center
05:04PM 24.8114 -73.0817 130° Southeast 484 557 27,000  Level Miami Center
05:05PM 24.7206 -72.9656 131° Southeast 489 563 27,000  Level Miami Center
05:06PM 24.6361 -72.8539 130° Southeast 489 563 27,000  Level Miami Center
05:07PM 24.5558 -72.7447 129° Southeast 474 545 27,000  Level Miami Center
05:08PM 24.4692 -72.6333 131° Southeast 474 545 27,000  Level Miami Center
05:09PM 24.3781 -72.5225 132° Southeast 488 562 27,000  Level Miami Center
05:10PM 24.2975 -72.4092 128° Southeast 475 547 27,000  Level Miami Center
05:11PM 24.2086 -72.3031 133° Southeast 470 541 27,000  Level Miami Center
05:12PM 24.1217 -72.1947 131° Southeast 465 535 27,000  Level Miami Center
05:13PM 24.0347 -72.0819 130° Southeast 480 552 27,000  Level Miami Center
05:14PM 23.9497 -71.9717 130° Southeast 480 552 27,000  Level Miami Center
05:15PM 23.8647 -71.8658 131° Southeast 475 547 27,000  Level Miami Center
05:16PM 23.7772 -71.7514 130° Southeast 469 540 27,000  Level Miami Center
05:17PM 23.6900 -71.6417 131° Southeast 474 545 27,000  Level Miami Center
05:18PM 23.6025 -71.5275 130° Southeast 474 545 27,000  Level Miami Center
05:19PM 23.5150 -71.4203 132° Southeast 479 551 27,000  Level Miami Center
05:20PM 23.4294 -71.3061 129° Southeast 478 550 27,000  Level Miami Center
05:21PM 23.3442 -71.2014 132° Southeast 470 541 27,000  Level Miami Center
05:22PM 23.2567 -71.0922 131° Southeast 475 547 27,000  Level Miami Center
05:23PM 23.1689 -70.9881 132° Southeast 475 547 27,000  Level Miami Center
05:24PM 23.0811 -70.8747 130° Southeast 480 552 27,000  Level Miami Center
05:25PM 22.9933 -70.7661 131° Southeast 480 552 27,000  Level Miami Center
05:26PM 22.9075 -70.6597 131° Southeast 473 544 27,000  Level Miami Center
05:27PM 22.8197 -70.5514 131° Southeast 473 544 27,000  Level Miami Center
05:28PM 22.7336 -70.4431 131° Southeast 473 544 27,000  Level Miami Center
05:29PM 22.6456 -70.3331 131° Southeast 473 544 27,000  Level Miami Center
05:30PM 22.5508 -70.2164 131° Southeast 473 544 27,000  Level Miami Center
05:31PM 22.4603 -70.1067 132° Southeast 473 544 27,000  Level Miami Center
05:32PM 22.3764 -70.0033 131° Southeast 478 550 27,000  Level Miami Center
05:33PM 22.2903 -69.8981 131° Southeast 470 541 27,000  Level Miami Center
05:34PM 22.2000 -69.7908 132° Southeast 470 541 27,000  Level Miami Center
05:35PM 22.1114 -69.6836 132° Southeast 475 547 27,000  Level Miami Center
05:36PM 22.0228 -69.5744 131° Southeast 475 547 27,000  Level Miami Center
05:37PM 21.9325 -69.4700 133° Southeast 475 547 27,000  Level Miami Center
05:38PM 21.8461 -69.3656 132° Southeast 475 547 27,000  Level Miami Center
05:39PM 21.7575 -69.2589 132° Southeast 475 547 27,000  Level Miami Center
05:40PM 21.6686 -69.1525 132° Southeast 475 547 27,000  Level Miami Center
05:41PM 21.5800 -69.0461 132° Southeast 480 552 27,000  Level Miami Center
05:42PM 21.4933 -68.9422 132° Southeast 477 549 27,000  Level Miami Center
05:43PM 21.4047 -68.8383 132° Southeast 477 549 27,000  Level Miami Center
05:44PM 21.3200 -68.7322 131° Southeast 471 542 27,000  Level Miami Center
05:45PM 21.2267 -68.6247 133° Southeast 476 548 27,000  Level Miami Center
05:46PM 21.1378 -68.5214 133° Southeast 476 548 27,000  Level Miami Center
05:47PM 21.0489 -68.4161 132° Southeast 476 548 27,000  Level Miami Center
05:48PM 20.9578 -68.3108 133° Southeast 476 548 27,000  Level Miami Center
05:49PM 20.8706 -68.2056 132° Southeast 476 548 27,000  Level Miami Center
05:50PM 20.7936 -68.0953 127° Southeast 476 548 27,000  Level Miami Center
05:51PM 20.7122 -67.9833 128° Southeast 471 542 27,000  Level Miami Center
05:52PM 20.6289 -67.8717 129° Southeast 477 549 27,000  Level Miami Center
05:53PM 20.5475 -67.7600 128° Southeast 477 549 27,000  Level Miami Center
05:54PM 20.4681 -67.6483 127° Southeast 472 543 27,000  Level Miami Center
05:55PM 20.4333 -67.5833 120° Southeast 480 552 27,000  Level San Juan Center
05:56PM 20.3500 -67.4833 132° Southeast 470 541 27,000  Level San Juan Center
05:57PM 20.2667 -67.3667 127° Southeast 480 552 27,000  Level San Juan Center
05:58PM 20.1833 -67.2500 127° Southeast 480 552 27,000  Level San Juan Center
05:59PM 20.1167 -67.1333 121° Southeast 480 552 27,000  Level San Juan Center
06:00PM 20.0333 -67.0333 132° Southeast 480 552 27,000  Level San Juan Center
06:01PM 19.9500 -66.9167 127° Southeast 470 541 27,000  Level San Juan Center
06:02PM 19.8667 -66.8000 127° Southeast 470 541 27,000  Level San Juan Center
06:03PM 19.7833 -66.6833 127° Southeast 480 552 27,000  Level San Juan Center
06:04PM 19.7000 -66.5833 132° Southeast 480 552 27,000  Level San Juan Center
06:05PM 19.6167 -66.4667 127° Southeast 480 552 27,000  Level San Juan Center
06:06PM 19.5333 -66.3500 127° Southeast 480 552 27,000  Level San Juan Center
06:07PM 19.4500 -66.2500 131° Southeast 480 552 27,000  Level San Juan Center
06:08PM 19.3667 -66.1333 127° Southeast 470 541 27,000  Level San Juan Center
06:09PM 19.2833 -66.0167 127° Southeast 480 552 27,000  Level San Juan Center
06:10PM 19.2000 -65.9167 131° Southeast 480 552 27,000  Level San Juan Center
06:11PM 19.1167 -65.8000 127° Southeast 480 552 27,000  Level San Juan Center
06:12PM 19.0333 -65.6667 123° Southeast 480 552 27,000  Level San Juan Center
06:13PM 18.9500 -65.5667 131° Southeast 480 552 27,000  Level San Juan Center
06:14PM 18.8667 -65.4500 127° Southeast 480 552 27,000  Level San Juan Center
06:15PM 18.7833 -65.3500 131° Southeast 480 552 27,000  Level San Juan Center
06:16PM 18.7000 -65.2333 127° Southeast 480 552 27,000  Level San Juan Center
06:17PM 18.6167 -65.1167 127° Southeast 480 552 27,000  Level San Juan Center
06:18PM 18.5333 -65.0000 127° Southeast 480 552 27,000  Level San Juan Center
06:19PM 18.4500 -64.9000 131° Southeast 500 575 27,000  Level San Juan Center
06:20PM 18.3667 -64.7833 127° Southeast 490 564 27,000  Level San Juan Center
06:21PM 18.2667 -64.6667 132° Southeast 480 552 27,000  Level San Juan Center
06:22PM 18.1833 -64.5667 131° Southeast 480 552 27,000  Level San Juan Center
06:23PM 18.1167 -64.4667 125° Southeast 480 552 27,000 -60 Level San Juan Center
06:24PM 18.0333 -64.3500 127° Southeast 470 541 26,900 -900 Descending San Juan Center
06:25PM 17.9333 -64.2333 132° Southeast 480 552 25,300 -1,620 Descending San Juan Center
06:26PM 17.8500 -64.1333 131° Southeast 480 552 23,700 -1,560 Descending San Juan Center
06:27PM 17.7667 -64.0167 127° Southeast 460 529 22,200 -1,500 Descending San Juan Center
06:28PM 17.7000 -63.9167 125° Southeast 440 506 20,800 -1,440 Descending San Juan Center
06:29PM 17.6167 -63.8333 136° Southeast 430 495 19,400 -1,380 Descending San Juan Center
06:30PM 17.5500 -63.7333 125° Southeast 430 495 18,100 -1,680 Descending San Juan Center
06:32PM 17.4500 -63.5000 114° Southeast 420 483 14,500 -1,860 Descending San Juan Center
06:33PM 17.4333 -63.4000 100° East 400 460 12,600 -1,860 Descending San Juan Center
06:34PM 17.4000 -63.2833 107° East 360 414 10,800 -1,680 Descending San Juan Center
06:35PM 17.3833 -63.2000 102° East 350 403 9,300 -1,620 Descending San Juan Center
06:37PM 17.3333 -63.0000 105° East 330 380 6,000 -1,680 Descending San Juan Center
06:39PM 17.4114 -62.8381 67° East  Level FlightAware Approximate
06:46PM 17.4667 -62.7167 62° Northeast  Level FlightAware Approximate
06:47PM 17.3462 -62.7182 62° Northeast  Level Estimated
06:48PM 17.3112 -62.7187 62° Northeast  Level Estimated
06:49PM 17.3112 -62.7187 62° Northeast  Level Estimated
06:50PM 17.3112 -62.7187 62° Northeast  Level Estimated
06:51PM 17.3112 -62.7187 62° Northeast  Level Estimated
06:52PM 17.3112 -62.7187 62° Northeast  Level Estimated
06:53PM 17.3112 -62.7187 62° Northeast  Level Estimated
06:54PM 17.3112 -62.7187 62° Northeast  Level Estimated
06:55PM 17.3112 -62.7187 62° Northeast  Level Estimated
06:56PM 17.3112 -62.7187 62° Northeast  Level Estimated
06:57PM 17.3112 -62.7187 62° Northeast  Level Estimated
06:58PM 17.3112 -62.7187 62° Northeast  Level Estimated
06:59PM 17.3112 -62.7187 62° Northeast  Level Estimated
07:00PM 17.3112 -62.7187 62° Northeast  Level Estimated
07:01PM 17.3112 -62.7187 62° Northeast  Level Estimated